Terminal Aerodrome Forecast
Issued by NWS

Home | Current Version | Previous Version | Text Only | Print | Product List | Glossary On
Versions: 1 2 3 4 5 6 7 8 9 10 11 12 13 14 15 16 17 18 19 20 21 22 23 24 25 26
000
FTAK31 PAFA 291729
TAFABT
TAF
PABT 291729Z 2918/3018 26007KT P6SM FEW010 SCT070 BKN200
     FM292100 32009KT P6SM SCT070 SCT200
     FM300700 VRB03KT P6SM FEW070 FEW200
     FM301200 VRB04KT P6SM SKC=

USA.gov is the U.S. government's official web portal to all federal, state and local government web resources and services.